sensor_id;sensor_type;location;lat;lon;timestamp;temperature;humidity
24430;DHT22;12613;47.408;8.412;2023-08-12T00:01:31;22.60;74.00
24430;DHT22;12613;47.408;8.412;2023-08-12T00:03:57;22.60;74.10
24430;DHT22;12613;47.408;8.412;2023-08-12T00:06:23;22.60;74.30
24430;DHT22;12613;47.408;8.412;2023-08-12T00:08:48;22.60;74.40
24430;DHT22;12613;47.408;8.412;2023-08-12T00:11:14;22.50;74.60
24430;DHT22;12613;47.408;8.412;2023-08-12T00:13:40;22.50;74.70
24430;DHT22;12613;47.408;8.412;2023-08-12T00:16:05;22.40;74.80
24430;DHT22;12613;47.408;8.412;2023-08-12T00:18:31;22.50;75.10
24430;DHT22;12613;47.408;8.412;2023-08-12T00:21:07;22.40;75.30
24430;DHT22;12613;47.408;8.412;2023-08-12T00:23:37;22.30;75.40
24430;DHT22;12613;47.408;8.412;2023-08-12T00:26:03;22.30;75.70
24430;DHT22;12613;47.408;8.412;2023-08-12T00:28:29;22.30;75.70
24430;DHT22;12613;47.408;8.412;2023-08-12T00:30:55;22.30;75.90
24430;DHT22;12613;47.408;8.412;2023-08-12T00:33:20;22.20;76.20
24430;DHT22;12613;47.408;8.412;2023-08-12T00:35:46;22.20;76.70
24430;DHT22;12613;47.408;8.412;2023-08-12T00:38:12;22.20;76.90
24430;DHT22;12613;47.408;8.412;2023-08-12T00:40:37;22.20;77.10
24430;DHT22;12613;47.408;8.412;2023-08-12T00:43:03;22.20;77.30
24430;DHT22;12613;47.408;8.412;2023-08-12T00:45:29;22.20;77.50
24430;DHT22;12613;47.408;8.412;2023-08-12T00:47:55;22.20;77.60
24430;DHT22;12613;47.408;8.412;2023-08-12T00:50:21;22.20;77.50
24430;DHT22;12613;47.408;8.412;2023-08-12T00:52:48;22.20;77.70
24430;DHT22;12613;47.408;8.412;2023-08-12T00:55:14;22.20;77.80
24430;DHT22;12613;47.408;8.412;2023-08-12T00:57:40;22.20;77.70
24430;DHT22;12613;47.408;8.412;2023-08-12T01:00:06;22.10;77.70
24430;DHT22;12613;47.408;8.412;2023-08-12T01:02:33;22.10;77.90
24430;DHT22;12613;47.408;8.412;2023-08-12T01:04:59;22.10;78.00
24430;DHT22;12613;47.408;8.412;2023-08-12T01:07:24;22.00;78.00
24430;DHT22;12613;47.408;8.412;2023-08-12T01:09:50;22.00;78.20
24430;DHT22;12613;47.408;8.412;2023-08-12T01:12:37;22.00;78.40
24430;DHT22;12613;47.408;8.412;2023-08-12T01:15:16;22.00;78.20
24430;DHT22;12613;47.408;8.412;2023-08-12T01:17:44;22.00;78.60
24430;DHT22;12613;47.408;8.412;2023-08-12T01:20:10;22.00;78.60
24430;DHT22;12613;47.408;8.412;2023-08-12T01:22:40;22.00;78.70
24430;DHT22;12613;47.408;8.412;2023-08-12T01:25:07;22.00;79.00
24430;DHT22;12613;47.408;8.412;2023-08-12T01:27:37;21.90;79.00
24430;DHT22;12613;47.408;8.412;2023-08-12T01:30:04;21.90;79.30
24430;DHT22;12613;47.408;8.412;2023-08-12T01:32:54;21.90;79.70
24430;DHT22;12613;47.408;8.412;2023-08-12T01:35:25;21.90;79.40
24430;DHT22;12613;47.408;8.412;2023-08-12T01:37:53;21.90;79.70
24430;DHT22;12613;47.408;8.412;2023-08-12T01:40:19;21.80;79.90
24430;DHT22;12613;47.408;8.412;2023-08-12T01:42:45;21.80;80.30
24430;DHT22;12613;47.408;8.412;2023-08-12T01:45:11;21.80;80.50
24430;DHT22;12613;47.408;8.412;2023-08-12T01:47:38;21.80;80.80
24430;DHT22;12613;47.408;8.412;2023-08-12T01:50:04;21.90;81.00
24430;DHT22;12613;47.408;8.412;2023-08-12T01:52:29;21.90;81.00
24430;DHT22;12613;47.408;8.412;2023-08-12T01:54:55;21.90;80.90
24430;DHT22;12613;47.408;8.412;2023-08-12T01:57:21;21.90;81.00
24430;DHT22;12613;47.408;8.412;2023-08-12T01:59:46;21.80;81.10
24430;DHT22;12613;47.408;8.412;2023-08-12T02:02:12;21.80;81.10
24430;DHT22;12613;47.408;8.412;2023-08-12T02:04:39;21.80;81.50
24430;DHT22;12613;47.408;8.412;2023-08-12T02:07:05;21.90;81.80
24430;DHT22;12613;47.408;8.412;2023-08-12T02:09:31;21.90;81.80
24430;DHT22;12613;47.408;8.412;2023-08-12T02:11:57;21.90;81.90
24430;DHT22;12613;47.408;8.412;2023-08-12T02:14:23;21.90;81.60
24430;DHT22;12613;47.408;8.412;2023-08-12T02:16:48;21.80;81.60
24430;DHT22;12613;47.408;8.412;2023-08-12T02:19:14;21.80;81.80
24430;DHT22;12613;47.408;8.412;2023-08-12T02:21:40;21.80;82.00
24430;DHT22;12613;47.408;8.412;2023-08-12T02:24:06;21.70;82.20
24430;DHT22;12613;47.408;8.412;2023-08-12T02:26:32;21.80;82.40
24430;DHT22;12613;47.408;8.412;2023-08-12T02:28:58;21.80;82.50
24430;DHT22;12613;47.408;8.412;2023-08-12T02:31:23;21.70;82.50
24430;DHT22;12613;47.408;8.412;2023-08-12T02:33:49;21.80;82.70
24430;DHT22;12613;47.408;8.412;2023-08-12T02:36:15;21.70;82.70
24430;DHT22;12613;47.408;8.412;2023-08-12T02:38:41;21.80;82.90
24430;DHT22;12613;47.408;8.412;2023-08-12T02:41:07;21.70;83.00
24430;DHT22;12613;47.408;8.412;2023-08-12T02:43:32;21.70;83.90
24430;DHT22;12613;47.408;8.412;2023-08-12T02:45:58;21.70;83.10
24430;DHT22;12613;47.408;8.412;2023-08-12T02:48:24;21.70;83.40
24430;DHT22;12613;47.408;8.412;2023-08-12T02:50:49;21.70;83.40
24430;DHT22;12613;47.408;8.412;2023-08-12T02:53:15;21.60;83.60
24430;DHT22;12613;47.408;8.412;2023-08-12T02:55:41;21.70;83.70
24430;DHT22;12613;47.408;8.412;2023-08-12T02:58:07;21.70;83.80
24430;DHT22;12613;47.408;8.412;2023-08-12T03:00:32;21.70;84.00
24430;DHT22;12613;47.408;8.412;2023-08-12T03:02:58;21.60;83.90
24430;DHT22;12613;47.408;8.412;2023-08-12T03:05:24;21.60;84.20
24430;DHT22;12613;47.408;8.412;2023-08-12T03:07:50;21.60;84.30
24430;DHT22;12613;47.408;8.412;2023-08-12T03:10:17;21.60;84.40
24430;DHT22;12613;47.408;8.412;2023-08-12T03:12:43;21.60;84.50
24430;DHT22;12613;47.408;8.412;2023-08-12T03:15:10;21.70;84.70
24430;DHT22;12613;47.408;8.412;2023-08-12T03:17:36;21.70;84.70
24430;DHT22;12613;47.408;8.412;2023-08-12T03:20:05;21.70;84.70
24430;DHT22;12613;47.408;8.412;2023-08-12T03:22:31;21.60;84.70
24430;DHT22;12613;47.408;8.412;2023-08-12T03:24:57;21.60;84.30
24430;DHT22;12613;47.408;8.412;2023-08-12T03:27:22;21.60;84.90
24430;DHT22;12613;47.408;8.412;2023-08-12T03:29:48;21.60;85.10
24430;DHT22;12613;47.408;8.412;2023-08-12T03:32:13;21.60;85.30
24430;DHT22;12613;47.408;8.412;2023-08-12T03:34:39;21.60;85.20
24430;DHT22;12613;47.408;8.412;2023-08-12T03:37:05;21.60;85.40
24430;DHT22;12613;47.408;8.412;2023-08-12T03:39:30;21.60;85.60
24430;DHT22;12613;47.408;8.412;2023-08-12T03:41:56;21.60;85.60
24430;DHT22;12613;47.408;8.412;2023-08-12T03:44:22;21.50;85.70
24430;DHT22;12613;47.408;8.412;2023-08-12T03:46:47;21.60;85.70
24430;DHT22;12613;47.408;8.412;2023-08-12T03:49:13;21.50;85.80
24430;DHT22;12613;47.408;8.412;2023-08-12T03:51:38;21.50;85.80
24430;DHT22;12613;47.408;8.412;2023-08-12T03:54:04;21.50;86.00
24430;DHT22;12613;47.408;8.412;2023-08-12T03:56:30;21.50;86.10
24430;DHT22;12613;47.408;8.412;2023-08-12T03:58:56;21.50;86.30
24430;DHT22;12613;47.408;8.412;2023-08-12T04:01:21;21.50;86.40
24430;DHT22;12613;47.408;8.412;2023-08-12T04:03:47;21.50;86.40
24430;DHT22;12613;47.408;8.412;2023-08-12T04:06:13;21.40;86.40
24430;DHT22;12613;47.408;8.412;2023-08-12T04:08:39;21.50;86.80
24430;DHT22;12613;47.408;8.412;2023-08-12T04:11:04;21.50;87.00
24430;DHT22;12613;47.408;8.412;2023-08-12T04:13:30;21.50;87.00
24430;DHT22;12613;47.408;8.412;2023-08-12T04:15:55;21.50;87.10
24430;DHT22;12613;47.408;8.412;2023-08-12T04:18:22;21.50;87.10
24430;DHT22;12613;47.408;8.412;2023-08-12T04:20:48;21.50;87.10
24430;DHT22;12613;47.408;8.412;2023-08-12T04:23:14;21.50;87.20
24430;DHT22;12613;47.408;8.412;2023-08-12T04:25:42;21.50;87.30
24430;DHT22;12613;47.408;8.412;2023-08-12T04:28:08;21.50;87.40
24430;DHT22;12613;47.408;8.412;2023-08-12T04:30:34;21.50;87.60
24430;DHT22;12613;47.408;8.412;2023-08-12T04:32:59;21.50;87.60
24430;DHT22;12613;47.408;8.412;2023-08-12T04:35:25;21.50;87.70
24430;DHT22;12613;47.408;8.412;2023-08-12T04:37:50;21.50;87.80
24430;DHT22;12613;47.408;8.412;2023-08-12T04:40:16;21.50;87.90
24430;DHT22;12613;47.408;8.412;2023-08-12T04:42:42;21.50;88.00
24430;DHT22;12613;47.408;8.412;2023-08-12T04:45:08;21.50;88.10
24430;DHT22;12613;47.408;8.412;2023-08-12T04:47:34;21.50;88.20
24430;DHT22;12613;47.408;8.412;2023-08-12T04:49:59;21.50;88.30
24430;DHT22;12613;47.408;8.412;2023-08-12T04:52:25;21.60;88.50
24430;DHT22;12613;47.408;8.412;2023-08-12T04:54:53;21.60;88.40
24430;DHT22;12613;47.408;8.412;2023-08-12T04:57:19;21.60;88.50
24430;DHT22;12613;47.408;8.412;2023-08-12T04:59:44;21.60;88.60
24430;DHT22;12613;47.408;8.412;2023-08-12T05:02:10;21.60;88.60
24430;DHT22;12613;47.408;8.412;2023-08-12T05:04:35;21.60;88.60
24430;DHT22;12613;47.408;8.412;2023-08-12T05:07:01;21.60;88.70
24430;DHT22;12613;47.408;8.412;2023-08-12T05:09:27;21.60;88.60
24430;DHT22;12613;47.408;8.412;2023-08-12T05:11:52;21.60;88.60
24430;DHT22;12613;47.408;8.412;2023-08-12T05:14:18;21.60;88.70
24430;DHT22;12613;47.408;8.412;2023-08-12T05:16:43;21.60;88.70
24430;DHT22;12613;47.408;8.412;2023-08-12T05:19:09;21.60;88.80
24430;DHT22;12613;47.408;8.412;2023-08-12T05:21:35;21.60;88.90
24430;DHT22;12613;47.408;8.412;2023-08-12T05:24:00;21.70;89.10
24430;DHT22;12613;47.408;8.412;2023-08-12T05:26:26;21.70;88.90
24430;DHT22;12613;47.408;8.412;2023-08-12T05:28:52;21.70;89.00
24430;DHT22;12613;47.408;8.412;2023-08-12T05:31:17;21.70;88.90
24430;DHT22;12613;47.408;8.412;2023-08-12T05:33:43;21.70;89.10
24430;DHT22;12613;47.408;8.412;2023-08-12T05:36:09;21.70;89.10
24430;DHT22;12613;47.408;8.412;2023-08-12T05:38:34;21.70;89.30
24430;DHT22;12613;47.408;8.412;2023-08-12T05:41:00;21.70;89.40
24430;DHT22;12613;47.408;8.412;2023-08-12T05:43:25;21.80;89.40
24430;DHT22;12613;47.408;8.412;2023-08-12T05:45:51;21.80;89.30
24430;DHT22;12613;47.408;8.412;2023-08-12T05:48:17;21.80;89.30
24430;DHT22;12613;47.408;8.412;2023-08-12T05:50:43;21.80;89.00
24430;DHT22;12613;47.408;8.412;2023-08-12T05:53:09;21.80;89.10
24430;DHT22;12613;47.408;8.412;2023-08-12T05:55:34;21.90;89.50
24430;DHT22;12613;47.408;8.412;2023-08-12T05:58:01;22.00;89.70
24430;DHT22;12613;47.408;8.412;2023-08-12T06:00:26;22.00;89.70
24430;DHT22;12613;47.408;8.412;2023-08-12T06:02:52;22.00;89.40
24430;DHT22;12613;47.408;8.412;2023-08-12T06:05:18;22.00;89.10
24430;DHT22;12613;47.408;8.412;2023-08-12T06:07:43;22.10;89.30
24430;DHT22;12613;47.408;8.412;2023-08-12T06:10:09;22.10;88.90
24430;DHT22;12613;47.408;8.412;2023-08-12T06:12:35;22.10;88.70
24430;DHT22;12613;47.408;8.412;2023-08-12T06:15:01;22.10;89.00
24430;DHT22;12613;47.408;8.412;2023-08-12T06:17:26;22.20;89.50
24430;DHT22;12613;47.408;8.412;2023-08-12T06:19:52;22.20;89.60
24430;DHT22;12613;47.408;8.412;2023-08-12T06:22:18;22.30;89.60
24430;DHT22;12613;47.408;8.412;2023-08-12T06:24:43;22.40;89.60
24430;DHT22;12613;47.408;8.412;2023-08-12T06:27:09;22.50;89.30
24430;DHT22;12613;47.408;8.412;2023-08-12T06:29:35;22.50;89.40
24430;DHT22;12613;47.408;8.412;2023-08-12T06:32:00;22.60;89.60
24430;DHT22;12613;47.408;8.412;2023-08-12T06:34:26;22.70;89.60
24430;DHT22;12613;47.408;8.412;2023-08-12T06:36:51;22.80;89.70
24430;DHT22;12613;47.408;8.412;2023-08-12T06:39:17;22.90;89.40
24430;DHT22;12613;47.408;8.412;2023-08-12T06:41:43;23.00;89.60
24430;DHT22;12613;47.408;8.412;2023-08-12T06:44:08;23.20;89.50
24430;DHT22;12613;47.408;8.412;2023-08-12T06:46:34;23.20;89.10
24430;DHT22;12613;47.408;8.412;2023-08-12T06:48:59;23.40;89.30
24430;DHT22;12613;47.408;8.412;2023-08-12T06:51:25;23.50;89.10
24430;DHT22;12613;47.408;8.412;2023-08-12T06:53:51;23.60;88.20
24430;DHT22;12613;47.408;8.412;2023-08-12T06:56:16;23.70;88.00
24430;DHT22;12613;47.408;8.412;2023-08-12T06:58:42;23.80;87.70
24430;DHT22;12613;47.408;8.412;2023-08-12T07:01:09;23.80;87.10
24430;DHT22;12613;47.408;8.412;2023-08-12T07:03:34;23.80;86.60
24430;DHT22;12613;47.408;8.412;2023-08-12T07:06:00;23.80;86.60
24430;DHT22;12613;47.408;8.412;2023-08-12T07:08:25;23.80;86.80
24430;DHT22;12613;47.408;8.412;2023-08-12T07:10:53;23.90;87.00
24430;DHT22;12613;47.408;8.412;2023-08-12T07:13:18;24.00;86.60
24430;DHT22;12613;47.408;8.412;2023-08-12T07:15:44;24.00;86.70
24430;DHT22;12613;47.408;8.412;2023-08-12T07:18:09;24.10;87.00
24430;DHT22;12613;47.408;8.412;2023-08-12T07:20:35;24.20;86.60
24430;DHT22;12613;47.408;8.412;2023-08-12T07:23:01;24.20;87.10
24430;DHT22;12613;47.408;8.412;2023-08-12T07:25:26;24.30;85.90
24430;DHT22;12613;47.408;8.412;2023-08-12T07:27:52;24.30;85.30
24430;DHT22;12613;47.408;8.412;2023-08-12T07:30:18;24.30;85.10
24430;DHT22;12613;47.408;8.412;2023-08-12T07:32:43;24.30;85.20
24430;DHT22;12613;47.408;8.412;2023-08-12T07:35:09;24.30;84.90
24430;DHT22;12613;47.408;8.412;2023-08-12T07:37:35;24.30;84.20
24430;DHT22;12613;47.408;8.412;2023-08-12T07:40:00;24.30;84.20
24430;DHT22;12613;47.408;8.412;2023-08-12T07:42:26;24.30;84.40
24430;DHT22;12613;47.408;8.412;2023-08-12T07:44:52;24.30;84.30
24430;DHT22;12613;47.408;8.412;2023-08-12T07:47:17;24.30;84.70
24430;DHT22;12613;47.408;8.412;2023-08-12T07:49:43;24.30;84.90
24430;DHT22;12613;47.408;8.412;2023-08-12T07:52:10;24.40;85.10
24430;DHT22;12613;47.408;8.412;2023-08-12T07:54:36;24.50;85.30
24430;DHT22;12613;47.408;8.412;2023-08-12T07:57:01;24.60;85.20
24430;DHT22;12613;47.408;8.412;2023-08-12T07:59:27;24.70;84.90
24430;DHT22;12613;47.408;8.412;2023-08-12T08:01:53;24.80;84.80
24430;DHT22;12613;47.408;8.412;2023-08-12T08:04:19;24.90;83.80
24430;DHT22;12613;47.408;8.412;2023-08-12T08:06:44;24.90;84.00
24430;DHT22;12613;47.408;8.412;2023-08-12T08:09:10;24.90;84.30
24430;DHT22;12613;47.408;8.412;2023-08-12T08:11:36;25.00;84.40
24430;DHT22;12613;47.408;8.412;2023-08-12T08:14:01;25.10;84.40
24430;DHT22;12613;47.408;8.412;2023-08-12T08:16:27;25.30;84.60
24430;DHT22;12613;47.408;8.412;2023-08-12T08:18:53;25.40;84.80
24430;DHT22;12613;47.408;8.412;2023-08-12T08:21:18;25.50;84.20
24430;DHT22;12613;47.408;8.412;2023-08-12T08:23:44;25.70;84.10
24430;DHT22;12613;47.408;8.412;2023-08-12T08:26:10;25.80;83.70
24430;DHT22;12613;47.408;8.412;2023-08-12T08:28:37;25.90;83.00
24430;DHT22;12613;47.408;8.412;2023-08-12T08:31:03;26.00;83.10
24430;DHT22;12613;47.408;8.412;2023-08-12T08:33:29;26.00;82.10
24430;DHT22;12613;47.408;8.412;2023-08-12T08:35:55;26.10;81.60
24430;DHT22;12613;47.408;8.412;2023-08-12T08:38:20;26.20;80.30
24430;DHT22;12613;47.408;8.412;2023-08-12T08:40:49;26.20;81.00
24430;DHT22;12613;47.408;8.412;2023-08-12T08:43:15;26.30;81.00
24430;DHT22;12613;47.408;8.412;2023-08-12T08:45:45;26.40;80.80
24430;DHT22;12613;47.408;8.412;2023-08-12T08:48:12;26.50;80.10
24430;DHT22;12613;47.408;8.412;2023-08-12T08:50:39;26.50;79.20
24430;DHT22;12613;47.408;8.412;2023-08-12T08:53:06;26.40;77.80
24430;DHT22;12613;47.408;8.412;2023-08-12T08:55:32;26.30;78.10
24430;DHT22;12613;47.408;8.412;2023-08-12T08:57:58;26.30;78.80
24430;DHT22;12613;47.408;8.412;2023-08-12T09:00:25;26.40;78.70
24430;DHT22;12613;47.408;8.412;2023-08-12T09:02:53;26.40;79.40
24430;DHT22;12613;47.408;8.412;2023-08-12T09:05:19;26.50;78.90
24430;DHT22;12613;47.408;8.412;2023-08-12T09:07:46;26.50;78.60
24430;DHT22;12613;47.408;8.412;2023-08-12T09:10:13;26.50;78.50
24430;DHT22;12613;47.408;8.412;2023-08-12T09:12:39;26.50;78.20
24430;DHT22;12613;47.408;8.412;2023-08-12T09:15:06;26.60;78.40
24430;DHT22;12613;47.408;8.412;2023-08-12T09:17:32;26.70;78.40
24430;DHT22;12613;47.408;8.412;2023-08-12T09:19:58;26.70;77.50
24430;DHT22;12613;47.408;8.412;2023-08-12T09:22:27;26.60;77.60
24430;DHT22;12613;47.408;8.412;2023-08-12T09:25:00;26.70;77.40
24430;DHT22;12613;47.408;8.412;2023-08-12T09:27:27;26.70;77.30
24430;DHT22;12613;47.408;8.412;2023-08-12T09:29:56;26.80;77.00
24430;DHT22;12613;47.408;8.412;2023-08-12T09:32:24;26.70;76.30
24430;DHT22;12613;47.408;8.412;2023-08-12T09:34:52;26.80;76.10
24430;DHT22;12613;47.408;8.412;2023-08-12T09:37:18;26.70;76.30
24430;DHT22;12613;47.408;8.412;2023-08-12T09:39:44;26.80;76.50
24430;DHT22;12613;47.408;8.412;2023-08-12T09:42:11;26.90;76.40
24430;DHT22;12613;47.408;8.412;2023-08-12T09:44:38;26.90;76.10
24430;DHT22;12613;47.408;8.412;2023-08-12T09:47:05;26.90;75.90
24430;DHT22;12613;47.408;8.412;2023-08-12T09:49:31;27.00;75.90
24430;DHT22;12613;47.408;8.412;2023-08-12T09:51:57;27.00;75.00
24430;DHT22;12613;47.408;8.412;2023-08-12T09:54:26;27.00;74.70
24430;DHT22;12613;47.408;8.412;2023-08-12T09:56:58;27.00;75.00
24430;DHT22;12613;47.408;8.412;2023-08-12T09:59:25;27.10;74.80
24430;DHT22;12613;47.408;8.412;2023-08-12T10:01:52;27.20;74.60
24430;DHT22;12613;47.408;8.412;2023-08-12T10:04:22;27.20;74.80
24430;DHT22;12613;47.408;8.412;2023-08-12T10:06:48;27.30;74.10
24430;DHT22;12613;47.408;8.412;2023-08-12T10:09:17;27.40;73.80
24430;DHT22;12613;47.408;8.412;2023-08-12T10:11:45;27.40;73.60
24430;DHT22;12613;47.408;8.412;2023-08-12T10:14:12;27.40;72.90
24430;DHT22;12613;47.408;8.412;2023-08-12T10:16:38;27.40;72.80
24430;DHT22;12613;47.408;8.412;2023-08-12T10:19:05;27.30;71.50
24430;DHT22;12613;47.408;8.412;2023-08-12T10:21:31;27.20;71.20
24430;DHT22;12613;47.408;8.412;2023-08-12T10:24:00;27.20;71.50
24430;DHT22;12613;47.408;8.412;2023-08-12T10:26:29;27.20;71.30
24430;DHT22;12613;47.408;8.412;2023-08-12T10:28:55;27.20;71.30
24430;DHT22;12613;47.408;8.412;2023-08-12T10:31:21;27.20;70.90
24430;DHT22;12613;47.408;8.412;2023-08-12T10:33:47;27.10;71.00
24430;DHT22;12613;47.408;8.412;2023-08-12T10:36:15;27.10;70.80
24430;DHT22;12613;47.408;8.412;2023-08-12T10:38:41;27.10;69.40
24430;DHT22;12613;47.408;8.412;2023-08-12T10:41:21;27.10;70.10
24430;DHT22;12613;47.408;8.412;2023-08-12T10:43:59;27.10;69.20
24430;DHT22;12613;47.408;8.412;2023-08-12T10:46:37;27.10;68.70
24430;DHT22;12613;47.408;8.412;2023-08-12T10:49:08;27.00;68.60
24430;DHT22;12613;47.408;8.412;2023-08-12T10:51:53;26.90;68.30
24430;DHT22;12613;47.408;8.412;2023-08-12T10:54:28;26.90;69.10
24430;DHT22;12613;47.408;8.412;2023-08-12T11:02:26;26.80;68.70
24430;DHT22;12613;47.408;8.412;2023-08-12T11:04:53;26.80;68.50
24430;DHT22;12613;47.408;8.412;2023-08-12T11:07:22;26.70;68.80
24430;DHT22;12613;47.408;8.412;2023-08-12T11:09:53;26.60;69.50
24430;DHT22;12613;47.408;8.412;2023-08-12T11:12:28;26.60;70.40
24430;DHT22;12613;47.408;8.412;2023-08-12T11:14:54;26.60;70.70
24430;DHT22;12613;47.408;8.412;2023-08-12T11:17:20;26.70;71.20
24430;DHT22;12613;47.408;8.412;2023-08-12T11:19:52;26.70;71.60
24430;DHT22;12613;47.408;8.412;2023-08-12T11:22:18;26.70;71.90
24430;DHT22;12613;47.408;8.412;2023-08-12T11:24:44;26.70;72.40
24430;DHT22;12613;47.408;8.412;2023-08-12T11:27:10;26.80;73.10
24430;DHT22;12613;47.408;8.412;2023-08-12T11:29:38;26.80;73.50
24430;DHT22;12613;47.408;8.412;2023-08-12T11:32:05;26.90;74.50
24430;DHT22;12613;47.408;8.412;2023-08-12T11:34:31;27.00;74.90
24430;DHT22;12613;47.408;8.412;2023-08-12T11:36:58;27.00;75.10
24430;DHT22;12613;47.408;8.412;2023-08-12T11:39:24;27.00;75.90
24430;DHT22;12613;47.408;8.412;2023-08-12T11:41:50;27.10;75.90
24430;DHT22;12613;47.408;8.412;2023-08-12T11:44:22;27.00;76.10
24430;DHT22;12613;47.408;8.412;2023-08-12T11:46:48;27.00;76.50
24430;DHT22;12613;47.408;8.412;2023-08-12T11:49:14;27.10;76.40
24430;DHT22;12613;47.408;8.412;2023-08-12T11:51:40;27.00;76.10
24430;DHT22;12613;47.408;8.412;2023-08-12T11:54:06;27.10;76.70
24430;DHT22;12613;47.408;8.412;2023-08-12T11:56:32;27.10;77.20
24430;DHT22;12613;47.408;8.412;2023-08-12T11:58:58;27.10;76.20
24430;DHT22;12613;47.408;8.412;2023-08-12T12:01:24;27.00;76.40
24430;DHT22;12613;47.408;8.412;2023-08-12T12:03:51;27.00;76.10
24430;DHT22;12613;47.408;8.412;2023-08-12T12:06:17;27.00;76.40
24430;DHT22;12613;47.408;8.412;2023-08-12T12:08:46;27.00;77.20
24430;DHT22;12613;47.408;8.412;2023-08-12T12:11:13;27.10;77.80
24430;DHT22;12613;47.408;8.412;2023-08-12T12:13:39;27.20;78.10
24430;DHT22;12613;47.408;8.412;2023-08-12T12:16:10;27.30;77.60
24430;DHT22;12613;47.408;8.412;2023-08-12T12:18:36;27.30;78.10
24430;DHT22;12613;47.408;8.412;2023-08-12T12:21:02;27.50;78.40
24430;DHT22;12613;47.408;8.412;2023-08-12T12:23:31;27.60;78.70
24430;DHT22;12613;47.408;8.412;2023-08-12T12:26:01;27.70;78.60
24430;DHT22;12613;47.408;8.412;2023-08-12T12:28:27;27.90;78.80
24430;DHT22;12613;47.408;8.412;2023-08-12T12:30:53;28.10;78.40
24430;DHT22;12613;47.408;8.412;2023-08-12T12:33:19;28.20;77.40
24430;DHT22;12613;47.408;8.412;2023-08-12T12:35:45;28.20;76.30
24430;DHT22;12613;47.408;8.412;2023-08-12T12:38:10;28.40;76.70
24430;DHT22;12613;47.408;8.412;2023-08-12T12:40:36;28.50;74.80
24430;DHT22;12613;47.408;8.412;2023-08-12T12:43:03;28.50;74.40
24430;DHT22;12613;47.408;8.412;2023-08-12T12:45:29;28.60;72.20
24430;DHT22;12613;47.408;8.412;2023-08-12T12:47:55;28.50;72.10
24430;DHT22;12613;47.408;8.412;2023-08-12T12:50:20;28.50;71.50
24430;DHT22;12613;47.408;8.412;2023-08-12T12:52:46;28.60;71.80
24430;DHT22;12613;47.408;8.412;2023-08-12T12:55:12;28.60;71.10
24430;DHT22;12613;47.408;8.412;2023-08-12T12:57:38;28.70;70.60
24430;DHT22;12613;47.408;8.412;2023-08-12T13:00:04;28.80;71.50
24430;DHT22;12613;47.408;8.412;2023-08-12T13:02:30;28.90;68.40
24430;DHT22;12613;47.408;8.412;2023-08-12T13:04:56;29.00;69.50
24430;DHT22;12613;47.408;8.412;2023-08-12T13:07:22;29.10;69.70
24430;DHT22;12613;47.408;8.412;2023-08-12T13:09:48;29.20;68.90
24430;DHT22;12613;47.408;8.412;2023-08-12T13:12:13;29.30;68.10
24430;DHT22;12613;47.408;8.412;2023-08-12T13:14:39;29.50;68.20
24430;DHT22;12613;47.408;8.412;2023-08-12T13:17:05;29.60;68.60
24430;DHT22;12613;47.408;8.412;2023-08-12T13:19:30;29.90;68.20
24430;DHT22;12613;47.408;8.412;2023-08-12T13:21:56;30.00;67.90
24430;DHT22;12613;47.408;8.412;2023-08-12T13:24:22;30.10;66.20
24430;DHT22;12613;47.408;8.412;2023-08-12T13:26:47;30.10;65.70
24430;DHT22;12613;47.408;8.412;2023-08-12T13:29:13;30.20;66.10
24430;DHT22;12613;47.408;8.412;2023-08-12T13:31:38;30.30;66.10
24430;DHT22;12613;47.408;8.412;2023-08-12T13:34:05;30.40;66.70
24430;DHT22;12613;47.408;8.412;2023-08-12T13:36:31;30.50;64.60
24430;DHT22;12613;47.408;8.412;2023-08-12T13:38:56;30.60;64.30
24430;DHT22;12613;47.408;8.412;2023-08-12T13:41:22;30.60;63.40
24430;DHT22;12613;47.408;8.412;2023-08-12T13:43:48;30.40;63.00
24430;DHT22;12613;47.408;8.412;2023-08-12T13:46:13;30.50;64.00
24430;DHT22;12613;47.408;8.412;2023-08-12T13:48:39;30.60;63.70
24430;DHT22;12613;47.408;8.412;2023-08-12T13:51:04;30.80;64.40
24430;DHT22;12613;47.408;8.412;2023-08-12T13:53:31;31.00;62.80
24430;DHT22;12613;47.408;8.412;2023-08-12T13:55:57;31.10;62.90
24430;DHT22;12613;47.408;8.412;2023-08-12T13:58:22;31.20;61.70
24430;DHT22;12613;47.408;8.412;2023-08-12T14:00:48;31.20;60.50
24430;DHT22;12613;47.408;8.412;2023-08-12T14:03:13;31.20;60.60
24430;DHT22;12613;47.408;8.412;2023-08-12T14:05:39;31.10;59.70
24430;DHT22;12613;47.408;8.412;2023-08-12T14:08:05;31.00;60.00
24430;DHT22;12613;47.408;8.412;2023-08-12T14:10:31;31.00;60.20
24430;DHT22;12613;47.408;8.412;2023-08-12T14:12:56;30.90;59.50
24430;DHT22;12613;47.408;8.412;2023-08-12T14:15:23;30.90;60.60
24430;DHT22;12613;47.408;8.412;2023-08-12T14:17:49;31.00;60.60
24430;DHT22;12613;47.408;8.412;2023-08-12T14:20:15;31.10;61.40
24430;DHT22;12613;47.408;8.412;2023-08-12T14:22:41;31.20;60.30
24430;DHT22;12613;47.408;8.412;2023-08-12T14:25:06;31.40;60.20
24430;DHT22;12613;47.408;8.412;2023-08-12T14:27:32;31.40;59.40
24430;DHT22;12613;47.408;8.412;2023-08-12T14:29:58;31.30;58.90
24430;DHT22;12613;47.408;8.412;2023-08-12T14:32:24;31.20;58.90
24430;DHT22;12613;47.408;8.412;2023-08-12T14:34:49;31.20;59.00
24430;DHT22;12613;47.408;8.412;2023-08-12T14:37:15;31.10;59.20
24430;DHT22;12613;47.408;8.412;2023-08-12T14:39:41;31.00;58.70
24430;DHT22;12613;47.408;8.412;2023-08-12T14:42:06;30.80;59.00
24430;DHT22;12613;47.408;8.412;2023-08-12T14:44:34;30.70;59.60
24430;DHT22;12613;47.408;8.412;2023-08-12T14:47:00;30.60;59.50
24430;DHT22;12613;47.408;8.412;2023-08-12T14:49:26;30.40;59.60
24430;DHT22;12613;47.408;8.412;2023-08-12T14:51:54;30.30;60.50
24430;DHT22;12613;47.408;8.412;2023-08-12T14:54:19;30.20;60.70
24430;DHT22;12613;47.408;8.412;2023-08-12T14:56:45;30.10;62.40
24430;DHT22;12613;47.408;8.412;2023-08-12T14:59:10;30.20;62.60
24430;DHT22;12613;47.408;8.412;2023-08-12T15:01:36;30.20;64.00
24430;DHT22;12613;47.408;8.412;2023-08-12T15:04:02;30.40;64.30
24430;DHT22;12613;47.408;8.412;2023-08-12T15:06:28;30.60;64.20
24430;DHT22;12613;47.408;8.412;2023-08-12T15:08:53;30.90;64.70
24430;DHT22;12613;47.408;8.412;2023-08-12T15:11:19;31.20;64.00
24430;DHT22;12613;47.408;8.412;2023-08-12T15:13:45;31.40;62.90
24430;DHT22;12613;47.408;8.412;2023-08-12T15:16:10;31.60;62.30
24430;DHT22;12613;47.408;8.412;2023-08-12T15:18:36;31.80;61.00
24430;DHT22;12613;47.408;8.412;2023-08-12T15:21:02;32.00;62.30
24430;DHT22;12613;47.408;8.412;2023-08-12T15:23:28;32.40;61.80
24430;DHT22;12613;47.408;8.412;2023-08-12T15:25:54;32.60;60.00
24430;DHT22;12613;47.408;8.412;2023-08-12T15:28:20;32.70;59.70
24430;DHT22;12613;47.408;8.412;2023-08-12T15:30:49;32.80;60.10